Tilley, Canada
Current Conditions -  °F | °C
As of 8:00 AM on Wednesday 22 Oct 2014 (Local Time) from CYXH Reporting Station
Few Clouds Few Clouds  
Wind Chill: 37°   Ceiling: Unl
Heat Index: 43°   Visibility: 30mi
Dew Point: 36°   Wind: 12mph
Humidity: 76%   Direction: 220°SW
Pressure: 29.8"   Gusts: NA
Location:  50.45°N, 111.65°W
Report Text: CYXH 221400Z 22010KT 30SM FEW150 FEW280 06/02 A2980 RMK AC1CI1 SLP105
Loading
Personal Weather Stations






























Interactive Weather Map
Tropical Storm Tracking
New forecast layout! Learn more

10-Day Weather Forecast

Advertisements
Track Severe Weather on mobile